createdAt,value
2022-11-27T00:00:01.906Z,68.00
2022-11-27T00:02:29.039Z,68.00
2022-11-27T00:04:56.162Z,68.00
2022-11-27T00:07:23.301Z,68.00
2022-11-27T00:09:50.296Z,68.10
2022-11-27T00:12:17.312Z,68.00
2022-11-27T00:14:44.279Z,67.90
2022-11-27T00:17:11.267Z,67.90
2022-11-27T00:19:38.594Z,68.60
2022-11-27T00:22:05.776Z,67.80
2022-11-27T00:24:32.774Z,67.70
2022-11-27T00:26:59.724Z,67.70
2022-11-27T00:29:29.174Z,67.70
2022-11-27T00:31:56.634Z,67.50
2022-11-27T00:34:23.590Z,67.40
2022-11-27T00:36:50.558Z,67.50
2022-11-27T00:39:17.836Z,67.50
2022-11-27T00:41:45.366Z,67.70
2022-11-27T00:44:14.286Z,67.70
2022-11-27T00:46:42.255Z,67.80
2022-11-27T00:49:12.431Z,67.70
2022-11-27T00:51:39.677Z,67.70
2022-11-27T00:54:07.423Z,67.60
2022-11-27T00:56:38.627Z,67.60
2022-11-27T00:59:07.101Z,67.60
2022-11-27T01:01:43.372Z,67.50
2022-11-27T01:04:14.291Z,67.50
2022-11-27T01:06:42.117Z,67.50
2022-11-27T01:09:10.403Z,67.50
2022-11-27T01:11:37.684Z,67.40
2022-11-27T01:14:07.984Z,67.50
2022-11-27T01:16:36.421Z,67.40
2022-11-27T01:19:05.792Z,67.40
2022-11-27T01:21:34.515Z,67.40
2022-11-27T01:24:02.982Z,67.50
2022-11-27T01:26:30.288Z,67.50
2022-11-27T01:28:58.758Z,67.60
2022-11-27T01:31:29.648Z,67.60
2022-11-27T01:34:06.411Z,67.70
2022-11-27T01:36:35.242Z,67.90
2022-11-27T01:39:03.496Z,67.90
2022-11-27T01:41:39.982Z,67.80
2022-11-27T01:44:25.099Z,67.90
2022-11-27T01:46:58.448Z,67.90
2022-11-27T01:49:25.470Z,67.90
2022-11-27T01:51:52.358Z,68.00
2022-11-27T01:54:21.909Z,68.10
2022-11-27T01:56:52.364Z,68.10
2022-11-27T01:59:19.577Z,68.10
2022-11-27T02:01:46.589Z,68.00
2022-11-27T02:04:13.794Z,68.00
2022-11-27T02:06:40.824Z,68.10
2022-11-27T02:09:07.794Z,68.10
2022-11-27T02:12:00.778Z,68.20
2022-11-27T02:14:53.533Z,68.30
2022-11-27T02:17:48.788Z,68.10
2022-11-27T02:20:31.070Z,68.00
2022-11-27T02:23:10.276Z,67.90
2022-11-27T02:25:46.177Z,67.90
2022-11-27T02:28:32.997Z,68.80
2022-11-27T02:31:16.733Z,67.90
2022-11-27T02:33:49.018Z,67.80
2022-11-27T02:36:22.922Z,67.70
2022-11-27T02:38:55.624Z,67.70
2022-11-27T02:41:46.911Z,67.70
2022-11-27T02:44:16.897Z,67.70
2022-11-27T02:46:45.592Z,67.70
2022-11-27T02:49:17.873Z,67.80
2022-11-27T02:52:04.855Z,67.90
2022-11-27T02:54:32.889Z,67.80
2022-11-27T02:57:03.730Z,67.70
2022-11-27T02:59:33.534Z,67.70
2022-11-27T03:02:07.732Z,67.70
2022-11-27T03:04:52.122Z,67.70
2022-11-27T03:07:28.108Z,67.60
2022-11-27T03:10:00.848Z,67.60
2022-11-27T03:12:28.126Z,67.50
2022-11-27T03:14:55.308Z,67.50
2022-11-27T03:17:40.005Z,67.60
2022-11-27T03:20:42.260Z,67.70
2022-11-27T03:23:09.286Z,67.70
2022-11-27T03:25:36.283Z,67.60
2022-11-27T03:28:08.587Z,67.60
2022-11-27T03:30:35.662Z,67.50
2022-11-27T03:33:03.203Z,67.50
2022-11-27T03:35:31.377Z,67.50
2022-11-27T03:37:58.491Z,67.50
2022-11-27T03:40:34.304Z,67.50
2022-11-27T03:43:11.415Z,67.60
2022-11-27T03:45:52.795Z,67.60
2022-11-27T03:48:22.748Z,67.60
2022-11-27T03:51:10.862Z,67.60
2022-11-27T03:53:43.441Z,67.50
2022-11-27T03:56:34.203Z,67.50
2022-11-27T03:59:23.539Z,67.60
2022-11-27T04:01:51.008Z,67.60
2022-11-27T04:04:18.175Z,67.50
2022-11-27T04:06:45.375Z,67.50
2022-11-27T04:09:12.336Z,67.40
2022-11-27T04:11:39.369Z,67.30
2022-11-27T04:14:06.771Z,67.30
2022-11-27T04:16:33.865Z,67.30
2022-11-27T04:19:01.058Z,67.30
2022-11-27T04:21:28.025Z,67.20
2022-11-27T04:23:55.216Z,67.10
2022-11-27T04:26:22.346Z,67.00
2022-11-27T04:28:49.293Z,67.00
2022-11-27T04:31:16.413Z,67.00
2022-11-27T04:33:43.382Z,67.00
2022-11-27T04:36:10.601Z,66.90
2022-11-27T04:38:37.915Z,66.90
2022-11-27T04:41:05.075Z,66.90
2022-11-27T04:43:32.072Z,66.90
2022-11-27T04:45:59.034Z,66.90
2022-11-27T04:48:26.051Z,66.90
2022-11-27T04:50:55.388Z,67.00
2022-11-27T04:53:22.667Z,67.00
2022-11-27T04:55:52.376Z,67.10
2022-11-27T04:58:19.406Z,67.10
2022-11-27T05:00:46.543Z,67.00
2022-11-27T05:03:13.819Z,67.10
2022-11-27T05:05:40.827Z,67.00
2022-11-27T05:08:07.858Z,67.20
2022-11-27T05:10:34.834Z,67.20
2022-11-27T05:13:01.815Z,67.20
2022-11-27T05:15:28.913Z,67.30
2022-11-27T05:17:55.888Z,67.30
2022-11-27T05:20:22.945Z,67.30
2022-11-27T05:22:50.830Z,67.40
2022-11-27T05:25:17.881Z,67.40
2022-11-27T05:27:44.862Z,67.30
2022-11-27T05:30:12.116Z,67.30
2022-11-27T05:32:39.137Z,67.30
2022-11-27T05:35:06.564Z,67.30
2022-11-27T05:37:33.507Z,67.30
2022-11-27T05:40:00.571Z,67.30
2022-11-27T05:42:27.651Z,67.20
2022-11-27T05:44:58.245Z,67.30
2022-11-27T05:47:25.783Z,67.40
2022-11-27T05:49:52.911Z,67.40
2022-11-27T05:52:19.989Z,67.40
2022-11-27T05:54:46.985Z,67.40
2022-11-27T05:57:13.995Z,67.60
2022-11-27T05:59:40.969Z,67.70
2022-11-27T06:02:08.104Z,67.70
2022-11-27T06:04:35.152Z,67.80
2022-11-27T06:07:02.125Z,67.90
2022-11-27T06:09:29.134Z,67.80
2022-11-27T06:11:56.583Z,67.90
2022-11-27T06:14:23.731Z,68.00
2022-11-27T06:16:50.837Z,68.10
2022-11-27T06:19:17.940Z,68.20
2022-11-27T06:21:46.548Z,68.30
2022-11-27T06:24:13.684Z,68.40
2022-11-27T06:26:40.750Z,68.40
2022-11-27T06:29:07.899Z,68.40
2022-11-27T06:31:35.344Z,68.30
2022-11-27T06:34:02.878Z,68.30
2022-11-27T06:36:38.190Z,68.30
2022-11-27T06:39:06.746Z,68.20
2022-11-27T06:41:34.156Z,68.10
2022-11-27T06:44:01.653Z,68.10
2022-11-27T06:46:29.927Z,67.90
2022-11-27T06:48:57.843Z,67.80
2022-11-27T06:51:27.959Z,67.70
2022-11-27T06:53:55.232Z,67.50
2022-11-27T06:56:24.762Z,67.30
2022-11-27T06:58:57.198Z,67.20
2022-11-27T07:01:26.519Z,67.10
2022-11-27T07:03:53.947Z,67.00
2022-11-27T07:06:23.107Z,66.70
2022-11-27T07:08:50.491Z,66.50
2022-11-27T07:11:21.112Z,66.50
2022-11-27T07:13:49.431Z,66.40
2022-11-27T07:16:18.442Z,66.30
2022-11-27T07:18:48.298Z,66.80
2022-11-27T07:21:15.616Z,65.50
2022-11-27T07:23:42.966Z,62.40
2022-11-27T07:26:16.061Z,59.80
2022-11-27T07:28:44.040Z,56.90
2022-11-27T07:31:12.983Z,55.60
2022-11-27T07:33:40.253Z,54.10
2022-11-27T07:36:19.548Z,52.10
2022-11-27T07:38:47.415Z,50.00
2022-11-27T07:41:14.974Z,48.40
2022-11-27T07:43:43.049Z,46.30
2022-11-27T07:46:19.440Z,44.60
2022-11-27T07:48:46.743Z,42.90
2022-11-27T07:51:15.710Z,41.70
2022-11-27T07:53:42.989Z,40.40
2022-11-27T07:56:12.956Z,39.30
2022-11-27T07:58:40.452Z,38.10
2022-11-27T08:01:15.371Z,37.40
2022-11-27T08:03:46.274Z,36.40
2022-11-27T08:06:24.940Z,36.10
2022-11-27T08:08:52.597Z,35.00
2022-11-27T08:11:24.389Z,35.10
2022-11-27T08:14:03.073Z,34.40
2022-11-27T08:16:31.292Z,34.00
2022-11-27T08:18:58.798Z,34.00
2022-11-27T08:21:27.113Z,33.90
2022-11-27T08:23:54.121Z,34.10
2022-11-27T08:26:21.335Z,34.30
2022-11-27T08:28:48.322Z,34.70
2022-11-27T08:31:16.176Z,35.10
2022-11-27T08:33:43.207Z,35.40
2022-11-27T08:36:16.260Z,36.00
2022-11-27T08:38:44.834Z,36.40
2022-11-27T08:41:11.940Z,37.10
2022-11-27T08:43:38.898Z,37.60
2022-11-27T08:46:07.417Z,38.30
2022-11-27T08:48:34.844Z,39.30
2022-11-27T08:51:07.190Z,40.10
2022-11-27T08:53:34.314Z,40.30
2022-11-27T08:56:07.475Z,40.30
2022-11-27T08:58:34.354Z,40.30
2022-11-27T09:01:06.918Z,40.50
2022-11-27T09:03:33.959Z,40.60
2022-11-27T09:06:00.832Z,40.60
2022-11-27T09:08:27.645Z,41.10
2022-11-27T09:10:54.472Z,41.50
2022-11-27T09:13:21.284Z,41.60
2022-11-27T09:15:48.126Z,41.60
2022-11-27T09:18:14.929Z,41.60
2022-11-27T09:20:41.787Z,41.50
2022-11-27T09:23:14.150Z,40.90
2022-11-27T09:25:41.270Z,40.00
2022-11-27T09:28:08.093Z,39.70
2022-11-27T09:30:35.084Z,38.90
2022-11-27T09:33:02.206Z,38.60
2022-11-27T09:35:29.124Z,37.60
2022-11-27T09:37:56.078Z,37.00
2022-11-27T09:40:22.984Z,36.70
2022-11-27T09:43:02.965Z,35.20
2022-11-27T09:45:30.457Z,35.20
2022-11-27T09:48:02.844Z,35.10
2022-11-27T09:50:32.030Z,34.90
2022-11-27T09:53:01.313Z,34.30
2022-11-27T09:55:37.851Z,34.40
2022-11-27T09:58:06.736Z,33.50
2022-11-27T10:00:33.731Z,33.60
2022-11-27T10:03:00.682Z,33.30
2022-11-27T10:05:39.892Z,33.10
2022-11-27T10:08:16.108Z,32.90
2022-11-27T10:10:58.132Z,32.00
2022-11-27T10:13:40.068Z,31.70
2022-11-27T10:16:22.293Z,31.50
2022-11-27T10:18:54.437Z,30.50
2022-11-27T10:21:33.364Z,29.80
2022-11-27T10:24:07.680Z,29.20
2022-11-27T10:26:39.051Z,29.10
2022-11-27T10:29:15.018Z,28.40
2022-11-27T10:31:41.846Z,28.20
2022-11-27T10:34:27.625Z,28.10
2022-11-27T10:36:55.523Z,27.90
2022-11-27T10:39:25.705Z,27.60
2022-11-27T10:41:57.225Z,27.10
2022-11-27T10:44:24.114Z,27.20
2022-11-27T10:46:52.340Z,26.90
2022-11-27T10:49:19.148Z,27.10
2022-11-27T10:51:46.006Z,26.80
2022-11-27T10:54:21.798Z,27.00
2022-11-27T10:57:07.368Z,27.30
2022-11-27T10:59:39.960Z,27.90
2022-11-27T11:02:24.679Z,28.20
2022-11-27T11:05:16.120Z,28.00
2022-11-27T11:07:39.019Z,28.20
2022-11-27T11:10:32.342Z,29.00
2022-11-27T11:13:11.262Z,30.30
2022-11-27T11:15:55.059Z,30.50
2022-11-27T11:18:24.098Z,29.40
2022-11-27T11:20:52.530Z,29.50
2022-11-27T11:23:23.971Z,29.60
2022-11-27T11:25:52.296Z,29.10
2022-11-27T11:28:20.002Z,28.80
2022-11-27T11:30:55.025Z,28.20
2022-11-27T11:33:21.892Z,28.30
2022-11-27T11:35:53.422Z,28.40
2022-11-27T11:38:26.771Z,28.60
2022-11-27T11:41:03.531Z,28.70
2022-11-27T11:43:33.083Z,28.90
2022-11-27T11:46:08.601Z,29.30
2022-11-27T11:48:36.963Z,30.50
2022-11-27T11:51:29.427Z,32.40
2022-11-27T11:54:06.210Z,33.40
2022-11-27T11:56:35.414Z,34.70
2022-11-27T11:59:26.003Z,36.20
2022-11-27T12:01:56.643Z,37.10
2022-11-27T12:04:39.402Z,37.10
2022-11-27T12:07:16.313Z,37.30
2022-11-27T12:10:10.870Z,37.20
2022-11-27T12:12:37.841Z,37.40
2022-11-27T12:15:13.410Z,37.80
2022-11-27T12:17:43.783Z,38.60
2022-11-27T12:20:38.706Z,39.80
2022-11-27T12:23:05.871Z,41.00
2022-11-27T12:25:35.922Z,41.50
2022-11-27T12:28:06.632Z,42.10
2022-11-27T12:30:54.342Z,42.70
2022-11-27T12:33:28.810Z,43.50
2022-11-27T12:36:07.747Z,43.70
2022-11-27T12:38:48.135Z,44.10
2022-11-27T12:41:43.000Z,44.70
2022-11-27T12:44:34.315Z,45.50
2022-11-27T12:47:11.412Z,45.80
2022-11-27T12:49:46.581Z,45.80
2022-11-27T12:52:28.522Z,45.80
2022-11-27T12:55:15.508Z,46.00
2022-11-27T12:58:09.698Z,46.20
2022-11-27T13:00:44.181Z,45.90
2022-11-27T13:03:25.282Z,45.90
2022-11-27T13:05:58.170Z,46.00
2022-11-27T13:08:30.762Z,45.80
2022-11-27T13:11:04.999Z,45.80
2022-11-27T13:13:37.477Z,45.50
2022-11-27T13:16:15.599Z,45.40
2022-11-27T13:18:50.585Z,45.20
2022-11-27T13:21:28.502Z,45.50
2022-11-27T13:23:56.275Z,46.10
2022-11-27T13:26:40.449Z,46.30
2022-11-27T13:29:24.971Z,47.40
2022-11-27T13:31:57.418Z,46.50
2022-11-27T13:34:28.595Z,44.90
2022-11-27T13:37:03.091Z,43.80
2022-11-27T13:39:33.104Z,43.00
2022-11-27T13:42:07.988Z,42.90
2022-11-27T13:44:37.458Z,41.50
2022-11-27T13:47:15.607Z,39.70
2022-11-27T13:49:43.522Z,38.50
2022-11-27T13:52:10.627Z,37.80
2022-11-27T13:54:37.631Z,38.20
2022-11-27T13:57:11.684Z,38.40
2022-11-27T13:59:39.594Z,38.60
2022-11-27T14:02:07.770Z,39.00
2022-11-27T14:04:34.966Z,39.50
2022-11-27T14:07:06.839Z,40.20
2022-11-27T14:09:36.299Z,40.80
2022-11-27T14:12:13.261Z,41.20
2022-11-27T14:14:41.404Z,42.10
2022-11-27T14:17:23.837Z,42.50
2022-11-27T14:19:59.347Z,43.10
2022-11-27T14:23:10.014Z,43.90
2022-11-27T14:25:36.414Z,45.20
2022-11-27T14:28:26.026Z,46.20
2022-11-27T14:31:01.597Z,46.90
2022-11-27T14:33:59.643Z,47.70
2022-11-27T14:36:23.489Z,49.00
2022-11-27T14:38:50.559Z,50.00
2022-11-27T14:41:20.680Z,51.10
2022-11-27T14:43:48.100Z,52.20
2022-11-27T14:46:19.288Z,52.80
2022-11-27T14:48:57.034Z,53.60
2022-11-27T14:51:26.956Z,54.30
2022-11-27T14:54:03.320Z,54.90
2022-11-27T14:56:40.670Z,56.00
2022-11-27T14:59:16.005Z,56.80
2022-11-27T15:01:43.216Z,57.40
2022-11-27T15:04:34.701Z,57.80
2022-11-27T15:07:05.706Z,59.10
2022-11-27T15:09:35.773Z,59.00
2022-11-27T15:12:15.270Z,59.50
2022-11-27T15:14:54.424Z,59.90
2022-11-27T15:17:27.196Z,60.70
2022-11-27T15:19:56.145Z,61.30
2022-11-27T15:22:23.536Z,61.70
2022-11-27T15:25:07.866Z,62.40
2022-11-27T15:27:47.589Z,63.50
2022-11-27T15:30:18.373Z,63.90
2022-11-27T15:32:53.440Z,64.00
2022-11-27T15:35:25.284Z,64.80
2022-11-27T15:37:52.864Z,64.90
2022-11-27T15:40:33.631Z,65.30
2022-11-27T15:43:00.690Z,65.80
2022-11-27T15:45:30.449Z,66.00
2022-11-27T15:48:00.065Z,66.70
2022-11-27T15:50:27.947Z,67.10
2022-11-27T15:52:54.775Z,67.40
2022-11-27T15:55:22.405Z,67.80
2022-11-27T15:57:49.598Z,68.30
2022-11-27T16:00:17.107Z,68.60
2022-11-27T16:02:44.211Z,69.10
2022-11-27T16:05:11.328Z,69.40
2022-11-27T16:07:38.622Z,69.70
2022-11-27T16:10:06.518Z,69.90
2022-11-27T16:12:33.955Z,70.10
2022-11-27T16:15:00.911Z,70.10
2022-11-27T16:17:27.948Z,70.20
2022-11-27T16:19:54.996Z,70.20
2022-11-27T16:22:22.121Z,70.30
2022-11-27T16:24:49.402Z,70.50
2022-11-27T16:27:16.544Z,70.70
2022-11-27T16:29:44.235Z,70.80
2022-11-27T16:32:11.402Z,70.90
2022-11-27T16:34:38.742Z,71.00
2022-11-27T16:37:07.016Z,71.10
2022-11-27T16:39:34.042Z,71.30
2022-11-27T16:42:02.524Z,71.30
2022-11-27T16:44:29.690Z,71.50
2022-11-27T16:46:56.660Z,71.50
2022-11-27T16:49:24.203Z,71.50
2022-11-27T16:51:51.781Z,71.60
2022-11-27T16:54:19.419Z,71.70
2022-11-27T16:56:46.699Z,71.60
2022-11-27T16:59:15.579Z,71.60
2022-11-27T17:01:44.065Z,71.50
2022-11-27T17:04:19.166Z,71.40
2022-11-27T17:06:49.155Z,71.50
2022-11-27T17:09:16.677Z,71.60
2022-11-27T17:11:48.721Z,71.50
2022-11-27T17:14:17.097Z,71.70
2022-11-27T17:16:45.063Z,71.60
2022-11-27T17:19:15.063Z,71.60
2022-11-27T17:21:43.667Z,71.70
2022-11-27T17:24:15.271Z,71.80
2022-11-27T17:26:45.592Z,71.90
2022-11-27T17:29:14.365Z,71.80
2022-11-27T17:31:42.012Z,71.90
2022-11-27T17:34:13.158Z,71.90
2022-11-27T17:36:43.148Z,71.90
2022-11-27T17:39:13.140Z,71.90
2022-11-27T17:41:40.998Z,71.80
2022-11-27T17:44:08.638Z,71.70
2022-11-27T17:46:36.995Z,71.70
2022-11-27T17:49:07.141Z,72.50
2022-11-27T17:51:35.990Z,71.60
2022-11-27T17:54:04.522Z,71.60
2022-11-27T17:56:33.543Z,71.60
2022-11-27T17:59:01.165Z,71.80
2022-11-27T18:01:30.725Z,71.70
2022-11-27T18:04:01.263Z,71.80
2022-11-27T18:06:31.187Z,71.80
2022-11-27T18:08:58.914Z,71.90
2022-11-27T18:11:28.682Z,72.00
2022-11-27T18:13:58.896Z,72.10
2022-11-27T18:16:32.597Z,72.10
2022-11-27T18:19:02.846Z,72.20
2022-11-27T18:21:31.063Z,72.10
2022-11-27T18:24:22.624Z,72.20
2022-11-27T18:29:35.319Z,72.40
2022-11-27T18:32:02.433Z,72.40
2022-11-27T18:34:29.533Z,72.40
2022-11-27T18:36:59.516Z,72.50
2022-11-27T18:39:27.485Z,72.60
2022-11-27T18:41:54.483Z,72.60
2022-11-27T18:44:21.578Z,72.70
2022-11-27T18:46:48.655Z,72.70
2022-11-27T18:49:16.058Z,72.90
2022-11-27T18:51:43.255Z,72.90
2022-11-27T18:54:10.476Z,73.10
2022-11-27T18:56:38.264Z,73.10
2022-11-27T18:59:07.280Z,73.30
2022-11-27T19:01:41.216Z,73.30
2022-11-27T19:04:10.511Z,73.20
2022-11-27T19:06:38.670Z,73.30
2022-11-27T19:09:06.646Z,73.40
2022-11-27T19:11:35.212Z,73.50
2022-11-27T19:14:04.294Z,73.60
2022-11-27T19:16:34.129Z,73.70
2022-11-27T19:19:03.018Z,73.80
2022-11-27T19:21:33.241Z,74.00
2022-11-27T19:24:02.629Z,74.00
2022-11-27T19:26:32.196Z,74.00
2022-11-27T19:29:02.585Z,74.10
2022-11-27T19:31:32.107Z,74.30
2022-11-27T19:34:01.924Z,74.20
2022-11-27T19:36:31.716Z,74.20
2022-11-27T19:39:06.104Z,74.30
2022-11-27T19:41:33.878Z,74.40
2022-11-27T19:44:03.593Z,74.40
2022-11-27T19:46:33.041Z,74.50
2022-11-27T19:49:03.645Z,74.70
2022-11-27T19:51:41.107Z,74.70
2022-11-27T19:54:13.120Z,74.90
2022-11-27T19:56:42.602Z,74.80
2022-11-27T19:59:10.603Z,74.80
2022-11-27T20:01:40.325Z,74.90
2022-11-27T20:04:10.160Z,74.90
2022-11-27T20:06:37.436Z,74.90
2022-11-27T20:09:05.844Z,74.90
2022-11-27T20:11:35.444Z,75.00
2022-11-27T20:14:05.369Z,75.00
2022-11-27T20:16:34.384Z,75.00
2022-11-27T20:19:05.345Z,75.00
2022-11-27T20:21:34.094Z,75.00
2022-11-27T20:24:02.614Z,75.00
2022-11-27T20:26:30.666Z,75.10
2022-11-27T20:28:59.825Z,75.10
2022-11-27T20:31:36.444Z,75.10
2022-11-27T20:34:05.839Z,75.20
2022-11-27T20:36:39.973Z,75.10
2022-11-27T20:39:19.211Z,75.10
2022-11-27T20:41:54.690Z,75.00
2022-11-27T20:44:24.548Z,75.00
2022-11-27T20:46:53.041Z,75.00
2022-11-27T20:49:20.649Z,75.10
2022-11-27T20:51:51.114Z,75.10
2022-11-27T20:54:23.468Z,75.10
2022-11-27T20:56:54.504Z,75.10
2022-11-27T20:59:25.698Z,75.20
2022-11-27T21:01:55.813Z,75.20
2022-11-27T21:04:27.731Z,75.20
2022-11-27T21:06:56.594Z,75.20
2022-11-27T21:09:24.939Z,75.20
2022-11-27T21:11:51.949Z,75.10
2022-11-27T21:14:19.078Z,75.20
2022-11-27T21:16:50.081Z,75.00
2022-11-27T21:19:28.333Z,75.00
2022-11-27T21:21:57.229Z,75.10
2022-11-27T21:24:27.482Z,75.00
2022-11-27T21:26:58.576Z,75.10
2022-11-27T21:29:29.451Z,75.10
2022-11-27T21:31:58.406Z,75.20
2022-11-27T21:34:25.835Z,75.30
2022-11-27T21:36:52.946Z,75.20
2022-11-27T21:39:20.994Z,75.30
2022-11-27T21:41:51.041Z,75.20
2022-11-27T21:44:19.888Z,75.20
2022-11-27T21:46:55.995Z,75.20
2022-11-27T21:49:30.829Z,75.20
2022-11-27T21:51:59.594Z,75.10
2022-11-27T21:54:31.836Z,75.10
2022-11-27T21:56:58.955Z,75.20
2022-11-27T21:59:26.157Z,75.20
2022-11-27T22:01:53.423Z,75.40
2022-11-27T22:04:21.414Z,75.40
2022-11-27T22:06:48.452Z,75.40
2022-11-27T22:09:19.653Z,75.30
2022-11-27T22:11:49.607Z,76.00
2022-11-27T22:14:19.642Z,75.20
2022-11-27T22:16:47.359Z,75.10
2022-11-27T22:19:16.298Z,75.10
2022-11-27T22:21:46.077Z,75.10
2022-11-27T22:24:18.823Z,75.20
2022-11-27T22:26:54.124Z,75.30
2022-11-27T22:29:21.093Z,75.30
2022-11-27T22:31:48.307Z,75.30
2022-11-27T22:34:16.401Z,75.40
2022-11-27T22:36:51.989Z,75.50
2022-11-27T22:39:19.021Z,75.80
2022-11-27T22:41:46.442Z,75.60
2022-11-27T22:44:19.471Z,75.80
2022-11-27T22:46:47.137Z,76.00
2022-11-27T22:49:16.077Z,76.20
2022-11-27T22:51:47.403Z,76.20
2022-11-27T22:54:17.200Z,76.20
2022-11-27T22:56:45.894Z,76.40
2022-11-27T23:02:02.635Z,76.70
2022-11-27T23:04:30.019Z,76.60
2022-11-27T23:07:00.870Z,76.50
2022-11-27T23:09:28.925Z,76.50
2022-11-27T23:11:57.093Z,76.60
2022-11-27T23:14:30.008Z,76.50
2022-11-27T23:16:57.355Z,76.50
2022-11-27T23:19:24.431Z,76.50
2022-11-27T23:21:57.691Z,76.60
2022-11-27T23:24:25.033Z,76.50
2022-11-27T23:26:53.324Z,76.50
2022-11-27T23:29:20.968Z,76.50
2022-11-27T23:31:48.612Z,76.30
2022-11-27T23:34:16.329Z,76.30
2022-11-27T23:36:43.379Z,76.20
2022-11-27T23:39:13.361Z,76.20
2022-11-27T23:41:40.744Z,75.90
2022-11-27T23:44:08.303Z,75.90
2022-11-27T23:46:35.405Z,75.90
2022-11-27T23:49:05.347Z,75.80
2022-11-27T23:51:33.083Z,75.80
2022-11-27T23:54:01.299Z,75.90
2022-11-27T23:56:30.810Z,76.00
2022-11-27T23:59:02.221Z,76.00
